Rubonia, Florida
Current Conditions -  °F | °C
As of 1:53 PM on Friday 28 Nov 2014 (Local Time) from KSRQ Reporting Station
Clear Clear  
Wind Chill: 60°   Ceiling: Unl
Heat Index: 60°   Visibility: 10mi
Dew Point: 33°   Wind: 8mph
Humidity: 36%   Direction: 50°NE
Pressure: 30.24"   Gusts: NA
Location:  27.5834°N, 82.5347°W
Report Text: KSRQ 281853Z 05007KT 10SM CLR 16/01 A3024 RMK AO2 SLP240 T01560006
Loading
Personal Weather Stations






























Interactive Weather Map New forecast layout! Learn more

10-Day Weather Forecast

Advertisements
Track Severe Weather on mobile